Enter the Airport ICAO Code

Search by Airport or City

Current Weather

SCTE | El Tepual Airport

Puerto Montt, Chile

Last Update 41 Minutes Ago

Clear Sky

Temperature of 07 ēC

Light Winds from Variable Directions

Temperature

07 ēC

Dew Point Temperature

07 ēC

Relative Humidity

100 %

Wind Direction

Variable

Wind Velocity

2 km/h (01 kt)

Gusts

None

Visibility

No Significant Reductions

Sea Level Pressure

1011 hPa (Hectopascals)

Layers of Clouds

None

METAR SCTE 090900Z VRB01KT CAVOK 07/07 Q1011 NOSIG

Weather Forecast

SCTE | El Tepual Airport

Puerto Montt, Chile

Forecast valid for the next 20 Hours

From now on it is expected:

Clear Sky

Light Winds from Variable Directions

From now on it is expected 1 hour with intermittent periods of:

Mist

In 2 to 4 hours it is expected the begining of:

Moderate Winds from North

In 8 hours it is expected the begining of 4 hours with intermittent periods of:

Partly Cloudy Sky

Moderate Winds from North with Gusts

In 13 to 15 hours it is expected the begining of:

Light Rain

Maximum Temperature

24 ēC in 8 Hours

Minimum Temperature

05 ēC in -3 Hours

TAF SCTE 090452Z 0906/1006 VRB02KT CAVOK TN05/0907Z TX24/0918Z TEMPO 0906/0911 3000 BR SCT004 BECMG 0912/0914 02013KT TEMPO 0918/0922 34015G25KT FEW040 SCT200 BECMG 0923/1001 8000 -RA SCT020 BKN030 BKN130